sensor_id;sensor_type;location;lat;lon;timestamp;pressure;altitude;pressure_sealevel;temperature;humidity
75895;BME280;64573;50.328;15.014;2023-07-20T00:01:04;98360.22;;;17.18;78.95
75895;BME280;64573;50.328;15.014;2023-07-20T00:03:29;98366.31;;;17.25;78.27
75895;BME280;64573;50.328;15.014;2023-07-20T00:05:54;98362.81;;;17.13;78.71
75895;BME280;64573;50.328;15.014;2023-07-20T00:08:20;98381.56;;;17.02;79.62
75895;BME280;64573;50.328;15.014;2023-07-20T00:10:45;98384.03;;;16.92;80.87
75895;BME280;64573;50.328;15.014;2023-07-20T00:13:11;98379.53;;;16.98;80.98
75895;BME280;64573;50.328;15.014;2023-07-20T00:15:37;98381.69;;;16.96;81.50
75895;BME280;64573;50.328;15.014;2023-07-20T00:18:05;98375.19;;;16.97;81.57
75895;BME280;64573;50.328;15.014;2023-07-20T00:20:31;98371.75;;;17.01;81.43
75895;BME280;64573;50.328;15.014;2023-07-20T00:22:57;98371.19;;;16.99;81.41
75895;BME280;64573;50.328;15.014;2023-07-20T00:25:23;98391.78;;;16.77;82.33
75895;BME280;64573;50.328;15.014;2023-07-20T00:27:48;98398.53;;;16.74;82.86
75895;BME280;64573;50.328;15.014;2023-07-20T00:30:13;98394.00;;;16.68;82.96
75895;BME280;64573;50.328;15.014;2023-07-20T00:32:39;98395.09;;;16.91;82.32
75895;BME280;64573;50.328;15.014;2023-07-20T00:35:05;98403.16;;;16.55;83.92
75895;BME280;64573;50.328;15.014;2023-07-20T00:37:30;98390.31;;;16.51;84.12
75895;BME280;64573;50.328;15.014;2023-07-20T00:39:55;98394.44;;;16.42;84.55
75895;BME280;64573;50.328;15.014;2023-07-20T00:42:21;98403.28;;;16.37;84.63
75895;BME280;64573;50.328;15.014;2023-07-20T00:44:47;98396.75;;;16.26;85.23
75895;BME280;64573;50.328;15.014;2023-07-20T00:47:12;98402.38;;;16.13;85.99
75895;BME280;64573;50.328;15.014;2023-07-20T00:49:38;98408.50;;;16.09;86.53
75895;BME280;64573;50.328;15.014;2023-07-20T00:52:06;98414.19;;;15.89;88.02
75895;BME280;64573;50.328;15.014;2023-07-20T00:54:32;98420.50;;;15.83;88.88
75895;BME280;64573;50.328;15.014;2023-07-20T00:57:00;98419.84;;;15.69;89.52
75895;BME280;64573;50.328;15.014;2023-07-20T00:59:26;98431.56;;;15.63;90.00
75895;BME280;64573;50.328;15.014;2023-07-20T01:01:51;98439.34;;;15.53;90.47
75895;BME280;64573;50.328;15.014;2023-07-20T01:04:17;98431.16;;;15.41;90.61
75895;BME280;64573;50.328;15.014;2023-07-20T01:07:09;98429.47;;;15.28;91.26
75895;BME280;64573;50.328;15.014;2023-07-20T01:12:26;98423.19;;;15.28;91.23
75895;BME280;64573;50.328;15.014;2023-07-20T01:14:54;98420.13;;;15.24;91.60
75895;BME280;64573;50.328;15.014;2023-07-20T01:17:20;98419.75;;;15.21;92.62
75895;BME280;64573;50.328;15.014;2023-07-20T01:19:45;98421.78;;;15.25;93.13
75895;BME280;64573;50.328;15.014;2023-07-20T01:25:27;98427.78;;;15.45;93.44
75895;BME280;64573;50.328;15.014;2023-07-20T01:33:21;98444.59;;;15.48;93.62
75895;BME280;64573;50.328;15.014;2023-07-20T01:35:58;98440.19;;;15.53;93.16
75895;BME280;64573;50.328;15.014;2023-07-20T01:38:25;98437.47;;;15.53;92.36
75895;BME280;64573;50.328;15.014;2023-07-20T01:40:51;98439.28;;;15.23;91.69
75895;BME280;64573;50.328;15.014;2023-07-20T01:43:17;98441.94;;;15.04;93.09
75895;BME280;64573;50.328;15.014;2023-07-20T01:45:43;98429.56;;;14.97;93.90
75895;BME280;64573;50.328;15.014;2023-07-20T01:48:08;98438.66;;;15.02;94.24
75895;BME280;64573;50.328;15.014;2023-07-20T01:50:34;98458.53;;;15.08;94.71
75895;BME280;64573;50.328;15.014;2023-07-20T01:53:00;98452.97;;;15.03;94.87
75895;BME280;64573;50.328;15.014;2023-07-20T01:55:25;98442.94;;;15.10;94.82
75895;BME280;64573;50.328;15.014;2023-07-20T01:57:51;98442.72;;;15.11;95.11
75895;BME280;64573;50.328;15.014;2023-07-20T02:00:16;98438.66;;;15.21;94.52
75895;BME280;64573;50.328;15.014;2023-07-20T02:02:44;98441.81;;;15.17;94.64
75895;BME280;64573;50.328;15.014;2023-07-20T02:05:09;98443.63;;;15.24;94.56
75895;BME280;64573;50.328;15.014;2023-07-20T02:07:34;98435.22;;;15.32;93.87
75895;BME280;64573;50.328;15.014;2023-07-20T02:10:00;98437.94;;;15.32;93.47
75895;BME280;64573;50.328;15.014;2023-07-20T02:12:25;98441.16;;;15.22;94.10
75895;BME280;64573;50.328;15.014;2023-07-20T02:14:50;98438.38;;;15.29;93.83
75895;BME280;64573;50.328;15.014;2023-07-20T02:17:16;98435.06;;;15.27;94.02
75895;BME280;64573;50.328;15.014;2023-07-20T02:19:42;98429.72;;;15.20;93.63
75895;BME280;64573;50.328;15.014;2023-07-20T02:22:07;98438.13;;;15.12;94.14
75895;BME280;64573;50.328;15.014;2023-07-20T02:24:33;98421.56;;;15.08;94.06
75895;BME280;64573;50.328;15.014;2023-07-20T02:26:59;98426.78;;;15.03;93.64
75895;BME280;64573;50.328;15.014;2023-07-20T02:29:24;98434.13;;;14.96;94.05
75895;BME280;64573;50.328;15.014;2023-07-20T02:31:50;98433.84;;;14.86;94.75
75895;BME280;64573;50.328;15.014;2023-07-20T02:34:15;98437.44;;;14.98;95.51
75895;BME280;64573;50.328;15.014;2023-07-20T02:36:40;98441.00;;;14.74;96.59
75895;BME280;64573;50.328;15.014;2023-07-20T02:39:08;98435.66;;;14.67;97.74
75895;BME280;64573;50.328;15.014;2023-07-20T02:41:33;98431.34;;;14.59;97.96
75895;BME280;64573;50.328;15.014;2023-07-20T02:43:59;98427.38;;;14.62;98.17
75895;BME280;64573;50.328;15.014;2023-07-20T02:46:25;98427.00;;;14.58;98.24
75895;BME280;64573;50.328;15.014;2023-07-20T02:48:50;98425.84;;;14.41;98.07
75895;BME280;64573;50.328;15.014;2023-07-20T02:51:16;98429.50;;;14.28;97.82
75895;BME280;64573;50.328;15.014;2023-07-20T02:53:41;98438.44;;;14.22;98.41
75895;BME280;64573;50.328;15.014;2023-07-20T02:56:07;98441.75;;;14.24;99.12
75895;BME280;64573;50.328;15.014;2023-07-20T02:58:34;98438.22;;;14.24;99.46
75895;BME280;64573;50.328;15.014;2023-07-20T03:01:03;98441.72;;;14.31;99.42
75895;BME280;64573;50.328;15.014;2023-07-20T03:03:34;98442.03;;;14.41;98.95
75895;BME280;64573;50.328;15.014;2023-07-20T03:06:06;98444.34;;;14.69;98.45
75895;BME280;64573;50.328;15.014;2023-07-20T03:08:34;98452.16;;;14.77;97.04
75895;BME280;64573;50.328;15.014;2023-07-20T03:11:01;98450.13;;;14.73;96.33
75895;BME280;64573;50.328;15.014;2023-07-20T03:13:26;98454.03;;;14.52;96.35
75895;BME280;64573;50.328;15.014;2023-07-20T03:15:52;98452.75;;;14.54;96.96
75895;BME280;64573;50.328;15.014;2023-07-20T03:18:18;98451.56;;;14.50;96.79
75895;BME280;64573;50.328;15.014;2023-07-20T03:20:43;98452.81;;;14.48;96.35
75895;BME280;64573;50.328;15.014;2023-07-20T03:23:08;98450.28;;;14.53;96.88
75895;BME280;64573;50.328;15.014;2023-07-20T03:25:34;98461.69;;;14.55;96.13
75895;BME280;64573;50.328;15.014;2023-07-20T03:27:59;98449.03;;;14.55;95.56
75895;BME280;64573;50.328;15.014;2023-07-20T03:30:24;98457.88;;;14.62;96.14
75895;BME280;64573;50.328;15.014;2023-07-20T03:32:51;98454.31;;;14.69;95.74
75895;BME280;64573;50.328;15.014;2023-07-20T03:35:16;98453.81;;;14.53;95.63
75895;BME280;64573;50.328;15.014;2023-07-20T03:37:41;98456.56;;;14.47;95.97
75895;BME280;64573;50.328;15.014;2023-07-20T03:40:07;98459.06;;;14.42;97.06
75895;BME280;64573;50.328;15.014;2023-07-20T03:42:33;98461.13;;;14.46;97.18
75895;BME280;64573;50.328;15.014;2023-07-20T03:44:58;98461.03;;;14.59;96.98
75895;BME280;64573;50.328;15.014;2023-07-20T03:47:24;98462.41;;;14.69;96.57
75895;BME280;64573;50.328;15.014;2023-07-20T03:49:49;98463.00;;;14.96;96.21
75895;BME280;64573;50.328;15.014;2023-07-20T03:52:15;98466.28;;;15.23;95.01
75895;BME280;64573;50.328;15.014;2023-07-20T03:54:40;98476.13;;;15.54;93.32
75895;BME280;64573;50.328;15.014;2023-07-20T03:57:05;98478.25;;;15.88;91.38
75895;BME280;64573;50.328;15.014;2023-07-20T03:59:31;98479.66;;;16.21;88.89
75895;BME280;64573;50.328;15.014;2023-07-20T04:01:56;98482.78;;;16.36;86.93
75895;BME280;64573;50.328;15.014;2023-07-20T04:04:21;98480.81;;;16.43;85.81
75895;BME280;64573;50.328;15.014;2023-07-20T04:06:47;98484.94;;;16.76;84.44
75895;BME280;64573;50.328;15.014;2023-07-20T04:09:12;98490.75;;;17.03;82.96
75895;BME280;64573;50.328;15.014;2023-07-20T04:11:38;98487.78;;;17.04;82.44
75895;BME280;64573;50.328;15.014;2023-07-20T04:14:03;98489.31;;;16.89;82.44
75895;BME280;64573;50.328;15.014;2023-07-20T04:16:29;98493.66;;;17.36;81.28
75895;BME280;64573;50.328;15.014;2023-07-20T04:18:55;98490.94;;;17.36;80.54
75895;BME280;64573;50.328;15.014;2023-07-20T04:21:22;98495.91;;;17.40;80.74
75895;BME280;64573;50.328;15.014;2023-07-20T04:23:47;98492.44;;;17.79;78.84
75895;BME280;64573;50.328;15.014;2023-07-20T04:26:13;98489.63;;;18.14;77.41
75895;BME280;64573;50.328;15.014;2023-07-20T04:28:40;98487.00;;;18.48;74.87
75895;BME280;64573;50.328;15.014;2023-07-20T04:31:14;98497.78;;;18.71;73.03
75895;BME280;64573;50.328;15.014;2023-07-20T04:33:40;98495.19;;;18.65;72.89
75895;BME280;64573;50.328;15.014;2023-07-20T04:36:05;98492.25;;;18.66;73.85
75895;BME280;64573;50.328;15.014;2023-07-20T04:38:31;98494.06;;;18.78;72.60
75895;BME280;64573;50.328;15.014;2023-07-20T04:40:56;98498.94;;;19.09;72.03
75895;BME280;64573;50.328;15.014;2023-07-20T04:43:22;98492.34;;;18.71;72.90
75895;BME280;64573;50.328;15.014;2023-07-20T04:45:47;98499.16;;;18.74;73.01
75895;BME280;64573;50.328;15.014;2023-07-20T04:48:14;98490.97;;;18.57;74.12
75895;BME280;64573;50.328;15.014;2023-07-20T04:50:41;98495.16;;;18.77;73.48
75895;BME280;64573;50.328;15.014;2023-07-20T04:53:08;98494.28;;;19.26;71.35
75895;BME280;64573;50.328;15.014;2023-07-20T04:55:35;98501.28;;;19.39;70.20
75895;BME280;64573;50.328;15.014;2023-07-20T04:58:02;98502.47;;;19.10;70.44
75895;BME280;64573;50.328;15.014;2023-07-20T05:00:28;98506.44;;;18.85;71.36
75895;BME280;64573;50.328;15.014;2023-07-20T05:02:54;98514.78;;;18.67;72.60
75895;BME280;64573;50.328;15.014;2023-07-20T05:05:19;98511.72;;;18.63;72.37
75895;BME280;64573;50.328;15.014;2023-07-20T05:07:45;98509.31;;;18.50;71.76
75895;BME280;64573;50.328;15.014;2023-07-20T05:10:11;98517.84;;;18.70;71.37
75895;BME280;64573;50.328;15.014;2023-07-20T05:12:36;98512.75;;;18.74;71.06
75895;BME280;64573;50.328;15.014;2023-07-20T05:15:02;98507.72;;;18.83;70.03
75895;BME280;64573;50.328;15.014;2023-07-20T05:17:28;98516.16;;;18.98;69.36
75895;BME280;64573;50.328;15.014;2023-07-20T05:19:54;98513.41;;;19.32;67.97
75895;BME280;64573;50.328;15.014;2023-07-20T05:22:19;98513.13;;;19.67;66.38
75895;BME280;64573;50.328;15.014;2023-07-20T05:24:44;98514.88;;;19.56;65.79
75895;BME280;64573;50.328;15.014;2023-07-20T05:27:10;98507.31;;;19.58;66.28
75895;BME280;64573;50.328;15.014;2023-07-20T05:29:35;98507.72;;;19.50;65.93
75895;BME280;64573;50.328;15.014;2023-07-20T05:32:00;98513.47;;;20.14;64.28
75895;BME280;64573;50.328;15.014;2023-07-20T05:34:26;98508.16;;;19.80;64.94
75895;BME280;64573;50.328;15.014;2023-07-20T05:36:51;98511.59;;;19.76;64.77
75895;BME280;64573;50.328;15.014;2023-07-20T05:39:17;98515.41;;;20.19;63.91
75895;BME280;64573;50.328;15.014;2023-07-20T05:41:43;98509.50;;;20.27;63.01
75895;BME280;64573;50.328;15.014;2023-07-20T05:44:08;98506.69;;;20.17;62.94
75895;BME280;64573;50.328;15.014;2023-07-20T05:46:34;98511.03;;;20.18;62.74
75895;BME280;64573;50.328;15.014;2023-07-20T05:48:59;98509.56;;;20.32;61.75
75895;BME280;64573;50.328;15.014;2023-07-20T05:51:25;98514.13;;;20.26;61.74
75895;BME280;64573;50.328;15.014;2023-07-20T05:53:50;98516.88;;;20.04;62.00
75895;BME280;64573;50.328;15.014;2023-07-20T05:56:15;98512.63;;;20.35;61.47
75895;BME280;64573;50.328;15.014;2023-07-20T05:58:42;98522.25;;;20.43;60.35
75895;BME280;64573;50.328;15.014;2023-07-20T06:01:07;98521.03;;;20.34;60.55
75895;BME280;64573;50.328;15.014;2023-07-20T06:03:32;98523.19;;;20.81;59.23
75895;BME280;64573;50.328;15.014;2023-07-20T06:06:02;98526.41;;;20.78;58.78
75895;BME280;64573;50.328;15.014;2023-07-20T06:08:29;98519.53;;;20.21;59.89
75895;BME280;64573;50.328;15.014;2023-07-20T06:10:54;98531.38;;;19.88;61.93
75895;BME280;64573;50.328;15.014;2023-07-20T06:13:20;98532.03;;;20.66;59.09
75895;BME280;64573;50.328;15.014;2023-07-20T06:15:45;98518.44;;;20.71;58.14
75895;BME280;64573;50.328;15.014;2023-07-20T06:18:11;98527.56;;;20.11;59.97
75895;BME280;64573;50.328;15.014;2023-07-20T06:20:36;98529.66;;;20.04;60.90
75895;BME280;64573;50.328;15.014;2023-07-20T06:23:01;98535.66;;;20.28;60.85
75895;BME280;64573;50.328;15.014;2023-07-20T06:25:27;98536.13;;;20.69;57.88
75895;BME280;64573;50.328;15.014;2023-07-20T06:27:52;98540.81;;;21.32;55.90
75895;BME280;64573;50.328;15.014;2023-07-20T06:30:19;98553.22;;;20.86;56.19
75895;BME280;64573;50.328;15.014;2023-07-20T06:32:44;98548.22;;;20.51;58.24
75895;BME280;64573;50.328;15.014;2023-07-20T06:35:09;98548.56;;;19.72;60.36
75895;BME280;64573;50.328;15.014;2023-07-20T06:37:35;98552.34;;;19.54;61.85
75895;BME280;64573;50.328;15.014;2023-07-20T06:40:02;98545.16;;;19.81;61.99
75895;BME280;64573;50.328;15.014;2023-07-20T06:42:29;98546.94;;;19.93;61.18
75895;BME280;64573;50.328;15.014;2023-07-20T06:44:54;98541.44;;;19.88;60.76
75895;BME280;64573;50.328;15.014;2023-07-20T06:47:20;98546.19;;;19.97;61.29
75895;BME280;64573;50.328;15.014;2023-07-20T06:49:45;98541.16;;;19.67;60.35
75895;BME280;64573;50.328;15.014;2023-07-20T06:52:10;98546.13;;;19.92;60.44
75895;BME280;64573;50.328;15.014;2023-07-20T06:54:36;98557.25;;;20.13;59.90
75895;BME280;64573;50.328;15.014;2023-07-20T06:57:01;98550.50;;;20.59;57.96
75895;BME280;64573;50.328;15.014;2023-07-20T06:59:27;98550.78;;;20.41;58.01
75895;BME280;64573;50.328;15.014;2023-07-20T07:01:52;98547.84;;;20.69;57.87
75895;BME280;64573;50.328;15.014;2023-07-20T07:04:17;98541.88;;;20.99;56.65
75895;BME280;64573;50.328;15.014;2023-07-20T07:06:43;98548.78;;;20.80;56.50
75895;BME280;64573;50.328;15.014;2023-07-20T07:09:09;98546.31;;;20.51;57.31
75895;BME280;64573;50.328;15.014;2023-07-20T07:11:34;98542.94;;;20.66;57.44
75895;BME280;64573;50.328;15.014;2023-07-20T07:14:00;98548.50;;;21.40;56.13
75895;BME280;64573;50.328;15.014;2023-07-20T07:16:25;98556.78;;;21.56;54.60
75895;BME280;64573;50.328;15.014;2023-07-20T07:18:51;98547.03;;;22.12;51.77
75895;BME280;64573;50.328;15.014;2023-07-20T07:21:16;98544.38;;;21.75;52.91
75895;BME280;64573;50.328;15.014;2023-07-20T07:23:42;98559.41;;;21.08;55.63
75895;BME280;64573;50.328;15.014;2023-07-20T07:26:08;98555.06;;;21.39;53.48
75895;BME280;64573;50.328;15.014;2023-07-20T07:28:34;98549.91;;;21.48;53.47
75895;BME280;64573;50.328;15.014;2023-07-20T07:30:59;98546.81;;;22.24;51.73
75895;BME280;64573;50.328;15.014;2023-07-20T07:33:24;98555.16;;;22.07;51.66
75895;BME280;64573;50.328;15.014;2023-07-20T07:35:53;98556.63;;;21.30;54.87
75895;BME280;64573;50.328;15.014;2023-07-20T07:38:19;98548.56;;;21.18;55.28
75895;BME280;64573;50.328;15.014;2023-07-20T07:40:45;98556.38;;;22.26;51.94
75895;BME280;64573;50.328;15.014;2023-07-20T07:43:11;98550.75;;;21.16;54.64
75895;BME280;64573;50.328;15.014;2023-07-20T07:45:37;98548.53;;;20.81;55.74
75895;BME280;64573;50.328;15.014;2023-07-20T07:48:04;98546.09;;;21.44;54.92
75895;BME280;64573;50.328;15.014;2023-07-20T07:50:30;98545.56;;;22.72;50.78
75895;BME280;64573;50.328;15.014;2023-07-20T07:52:55;98551.16;;;21.67;53.27
75895;BME280;64573;50.328;15.014;2023-07-20T07:55:21;98565.41;;;21.10;55.31
75895;BME280;64573;50.328;15.014;2023-07-20T07:57:46;98558.59;;;20.81;56.76
75895;BME280;64573;50.328;15.014;2023-07-20T08:00:13;98560.66;;;20.69;57.05
75895;BME280;64573;50.328;15.014;2023-07-20T08:02:41;98560.84;;;20.62;57.29
75895;BME280;64573;50.328;15.014;2023-07-20T08:05:07;98568.34;;;21.04;55.45
75895;BME280;64573;50.328;15.014;2023-07-20T08:07:32;98564.34;;;21.86;53.55
75895;BME280;64573;50.328;15.014;2023-07-20T08:09:57;98563.44;;;21.70;53.40
75895;BME280;64573;50.328;15.014;2023-07-20T08:12:24;98569.56;;;21.45;53.80
75895;BME280;64573;50.328;15.014;2023-07-20T08:14:49;98576.81;;;21.02;55.74
75895;BME280;64573;50.328;15.014;2023-07-20T08:17:15;98578.56;;;21.18;54.46
75895;BME280;64573;50.328;15.014;2023-07-20T08:19:40;98579.47;;;20.97;55.19
75895;BME280;64573;50.328;15.014;2023-07-20T08:22:07;98587.44;;;21.68;53.57
75895;BME280;64573;50.328;15.014;2023-07-20T08:24:32;98589.13;;;21.37;54.09
75895;BME280;64573;50.328;15.014;2023-07-20T08:26:58;98588.00;;;21.06;51.89
75895;BME280;64573;50.328;15.014;2023-07-20T08:29:24;98576.25;;;21.69;50.73
75895;BME280;64573;50.328;15.014;2023-07-20T08:31:49;98579.25;;;21.31;50.51
75895;BME280;64573;50.328;15.014;2023-07-20T08:34:15;98573.16;;;21.24;50.44
75895;BME280;64573;50.328;15.014;2023-07-20T08:36:40;98567.34;;;22.32;47.94
75895;BME280;64573;50.328;15.014;2023-07-20T08:39:06;98577.25;;;22.58;46.34
75895;BME280;64573;50.328;15.014;2023-07-20T08:41:34;98572.19;;;23.38;45.67
75895;BME280;64573;50.328;15.014;2023-07-20T08:44:00;98569.19;;;23.39;45.81
75895;BME280;64573;50.328;15.014;2023-07-20T08:46:27;98564.72;;;24.00;43.84
75895;BME280;64573;50.328;15.014;2023-07-20T08:48:55;98562.69;;;24.31;42.88
75895;BME280;64573;50.328;15.014;2023-07-20T08:51:21;98560.00;;;24.15;43.92
75895;BME280;64573;50.328;15.014;2023-07-20T08:53:47;98573.41;;;24.27;42.70
75895;BME280;64573;50.328;15.014;2023-07-20T08:56:14;98571.72;;;24.31;42.93
75895;BME280;64573;50.328;15.014;2023-07-20T08:58:43;98564.09;;;24.23;43.35
75895;BME280;64573;50.328;15.014;2023-07-20T09:01:10;98561.75;;;23.91;42.77
75895;BME280;64573;50.328;15.014;2023-07-20T09:03:36;98558.31;;;24.30;42.46
75895;BME280;64573;50.328;15.014;2023-07-20T09:06:05;98557.66;;;24.97;41.38
75895;BME280;64573;50.328;15.014;2023-07-20T09:08:30;98562.56;;;25.69;40.09
75895;BME280;64573;50.328;15.014;2023-07-20T09:10:56;98556.66;;;26.76;38.12
75895;BME280;64573;50.328;15.014;2023-07-20T09:13:21;98551.06;;;27.19;36.49
75895;BME280;64573;50.328;15.014;2023-07-20T09:15:47;98552.44;;;27.35;35.58
75895;BME280;64573;50.328;15.014;2023-07-20T09:18:27;98544.53;;;26.58;36.35
75895;BME280;64573;50.328;15.014;2023-07-20T09:20:59;98538.00;;;26.30;37.40
75895;BME280;64573;50.328;15.014;2023-07-20T09:23:36;98547.78;;;26.79;36.37
75895;BME280;64573;50.328;15.014;2023-07-20T09:26:13;98549.31;;;25.81;37.11
75895;BME280;64573;50.328;15.014;2023-07-20T09:28:57;98556.03;;;25.94;38.21
75895;BME280;64573;50.328;15.014;2023-07-20T09:31:22;98544.56;;;25.28;38.98
75895;BME280;64573;50.328;15.014;2023-07-20T09:33:49;98541.97;;;25.71;38.24
75895;BME280;64573;50.328;15.014;2023-07-20T09:36:15;98541.41;;;25.69;38.58
75895;BME280;64573;50.328;15.014;2023-07-20T09:38:43;98544.88;;;24.33;41.02
75895;BME280;64573;50.328;15.014;2023-07-20T09:41:16;98544.25;;;24.46;41.04
75895;BME280;64573;50.328;15.014;2023-07-20T09:43:43;98556.56;;;23.84;42.13
75895;BME280;64573;50.328;15.014;2023-07-20T09:46:10;98554.00;;;24.03;42.08
75895;BME280;64573;50.328;15.014;2023-07-20T09:48:36;98557.56;;;24.04;42.61
75895;BME280;64573;50.328;15.014;2023-07-20T09:51:01;98556.88;;;23.06;43.77
75895;BME280;64573;50.328;15.014;2023-07-20T09:53:27;98579.97;;;21.95;50.72
75895;BME280;64573;50.328;15.014;2023-07-20T09:55:53;98592.28;;;20.97;56.56
75895;BME280;64573;50.328;15.014;2023-07-20T09:58:19;98600.19;;;20.98;56.74
75895;BME280;64573;50.328;15.014;2023-07-20T10:00:46;98584.75;;;20.55;55.45
75895;BME280;64573;50.328;15.014;2023-07-20T10:03:20;98595.19;;;20.63;55.30
75895;BME280;64573;50.328;15.014;2023-07-20T10:05:59;98606.72;;;20.70;60.20
75895;BME280;64573;50.328;15.014;2023-07-20T10:08:26;98613.69;;;19.78;57.49
75895;BME280;64573;50.328;15.014;2023-07-20T10:10:53;98606.69;;;19.49;57.25
75895;BME280;64573;50.328;15.014;2023-07-20T10:13:26;98615.22;;;19.07;60.07
75895;BME280;64573;50.328;15.014;2023-07-20T10:16:03;98598.38;;;19.55;65.30
75895;BME280;64573;50.328;15.014;2023-07-20T10:21:19;98593.75;;;19.56;68.10
75895;BME280;64573;50.328;15.014;2023-07-20T10:23:48;98588.56;;;19.71;69.67
75895;BME280;64573;50.328;15.014;2023-07-20T10:26:13;98597.63;;;19.60;68.20
75895;BME280;64573;50.328;15.014;2023-07-20T10:28:39;98591.63;;;20.41;64.73
75895;BME280;64573;50.328;15.014;2023-07-20T10:31:07;98589.09;;;21.05;60.81
75895;BME280;64573;50.328;15.014;2023-07-20T10:33:33;98587.03;;;20.90;60.55
75895;BME280;64573;50.328;15.014;2023-07-20T10:36:04;98587.22;;;21.37;57.05
75895;BME280;64573;50.328;15.014;2023-07-20T10:38:52;98580.47;;;21.45;58.48
75895;BME280;64573;50.328;15.014;2023-07-20T10:41:27;98584.63;;;22.00;54.02
75895;BME280;64573;50.328;15.014;2023-07-20T10:43:58;98571.41;;;22.24;53.53
75895;BME280;64573;50.328;15.014;2023-07-20T10:49:02;98581.72;;;23.91;46.61
75895;BME280;64573;50.328;15.014;2023-07-20T10:51:27;98567.75;;;23.83;47.06
75895;BME280;64573;50.328;15.014;2023-07-20T10:53:55;98568.22;;;24.10;46.94
75895;BME280;64573;50.328;15.014;2023-07-20T10:56:23;98570.53;;;23.78;47.48
75895;BME280;64573;50.328;15.014;2023-07-20T10:58:48;98574.66;;;23.70;47.63
75895;BME280;64573;50.328;15.014;2023-07-20T11:01:17;98559.88;;;23.25;47.09
75895;BME280;64573;50.328;15.014;2023-07-20T11:03:43;98565.72;;;24.29;45.29
75895;BME280;64573;50.328;15.014;2023-07-20T11:09:16;98559.47;;;24.73;42.38
75895;BME280;64573;50.328;15.014;2023-07-20T11:11:47;98548.50;;;24.13;42.89
75895;BME280;64573;50.328;15.014;2023-07-20T11:16:48;98556.25;;;25.05;41.11
75895;BME280;64573;50.328;15.014;2023-07-20T11:19:22;98548.81;;;25.11;40.50
75895;BME280;64573;50.328;15.014;2023-07-20T11:21:52;98552.59;;;26.50;38.22
75895;BME280;64573;50.328;15.014;2023-07-20T11:24:18;98561.28;;;24.93;40.98
75895;BME280;64573;50.328;15.014;2023-07-20T11:26:49;98551.47;;;24.82;42.49
75895;BME280;64573;50.328;15.014;2023-07-20T11:29:16;98544.84;;;25.85;39.29
75895;BME280;64573;50.328;15.014;2023-07-20T11:31:43;98541.09;;;25.13;41.20
75895;BME280;64573;50.328;15.014;2023-07-20T11:34:16;98546.47;;;22.98;44.79
75895;BME280;64573;50.328;15.014;2023-07-20T11:36:43;98536.00;;;23.82;44.58
75895;BME280;64573;50.328;15.014;2023-07-20T11:39:10;98530.69;;;24.16;44.48
75895;BME280;64573;50.328;15.014;2023-07-20T11:41:36;98541.28;;;24.87;41.28
75895;BME280;64573;50.328;15.014;2023-07-20T11:44:03;98521.09;;;25.70;39.64
75895;BME280;64573;50.328;15.014;2023-07-20T11:46:28;98530.22;;;26.13;39.17
75895;BME280;64573;50.328;15.014;2023-07-20T11:48:58;98533.63;;;25.23;38.92
75895;BME280;64573;50.328;15.014;2023-07-20T11:51:30;98521.13;;;24.13;41.69
75895;BME280;64573;50.328;15.014;2023-07-20T11:53:56;98517.22;;;24.79;41.07
75895;BME280;64573;50.328;15.014;2023-07-20T11:56:23;98518.84;;;24.26;41.42
75895;BME280;64573;50.328;15.014;2023-07-20T11:58:48;98521.25;;;23.73;44.08
75895;BME280;64573;50.328;15.014;2023-07-20T12:01:14;98510.38;;;22.96;47.15
75895;BME280;64573;50.328;15.014;2023-07-20T12:03:42;98513.38;;;23.20;46.65
75895;BME280;64573;50.328;15.014;2023-07-20T12:06:08;98511.16;;;22.81;47.77
75895;BME280;64573;50.328;15.014;2023-07-20T12:08:33;98506.47;;;22.46;47.66
75895;BME280;64573;50.328;15.014;2023-07-20T12:10:59;98504.59;;;22.82;48.47
75895;BME280;64573;50.328;15.014;2023-07-20T12:13:35;98486.47;;;23.78;46.06
75895;BME280;64573;50.328;15.014;2023-07-20T12:16:08;98498.88;;;23.15;46.07
75895;BME280;64573;50.328;15.014;2023-07-20T12:18:37;98505.81;;;25.35;41.20
75895;BME280;64573;50.328;15.014;2023-07-20T12:21:02;98500.22;;;24.28;43.08
75895;BME280;64573;50.328;15.014;2023-07-20T12:23:35;98497.50;;;24.77;42.18
75895;BME280;64573;50.328;15.014;2023-07-20T12:26:02;98488.88;;;24.89;42.17
75895;BME280;64573;50.328;15.014;2023-07-20T12:28:28;98490.72;;;25.85;39.33
75895;BME280;64573;50.328;15.014;2023-07-20T12:30:54;98473.06;;;27.10;34.71
75895;BME280;64573;50.328;15.014;2023-07-20T12:33:21;98485.09;;;27.74;33.85
75895;BME280;64573;50.328;15.014;2023-07-20T12:35:48;98474.09;;;26.95;33.92
75895;BME280;64573;50.328;15.014;2023-07-20T12:38:13;98477.81;;;26.10;35.29
75895;BME280;64573;50.328;15.014;2023-07-20T12:40:38;98483.97;;;25.49;35.37
75895;BME280;64573;50.328;15.014;2023-07-20T12:43:05;98482.28;;;24.90;36.32
75895;BME280;64573;50.328;15.014;2023-07-20T12:45:32;98470.69;;;25.32;35.14
75895;BME280;64573;50.328;15.014;2023-07-20T12:47:58;98477.09;;;25.51;34.35
75895;BME280;64573;50.328;15.014;2023-07-20T12:50:23;98468.22;;;25.83;33.06
75895;BME280;64573;50.328;15.014;2023-07-20T12:52:48;98474.44;;;25.94;33.15
75895;BME280;64573;50.328;15.014;2023-07-20T12:55:14;98478.00;;;26.13;32.81
75895;BME280;64573;50.328;15.014;2023-07-20T12:57:41;98472.63;;;26.84;31.28
75895;BME280;64573;50.328;15.014;2023-07-20T13:00:08;98478.47;;;27.15;30.97
75895;BME280;64573;50.328;15.014;2023-07-20T13:02:34;98484.47;;;26.65;31.50
75895;BME280;64573;50.328;15.014;2023-07-20T13:04:59;98482.84;;;26.22;32.53
75895;BME280;64573;50.328;15.014;2023-07-20T13:07:33;98491.00;;;25.60;33.20
75895;BME280;64573;50.328;15.014;2023-07-20T13:09:59;98491.47;;;25.14;33.98